createdAt,value
2023-06-24T00:00:54.538Z,70.08
2023-06-24T00:01:56.628Z,69.98
2023-06-24T00:03:04.018Z,70.15
2023-06-24T00:04:06.245Z,70.29
2023-06-24T00:05:10.951Z,70.44
2023-06-24T00:06:19.111Z,70.74
2023-06-24T00:07:23.529Z,71.01
2023-06-24T00:08:35.340Z,70.98
2023-06-24T00:09:38.496Z,71.08
2023-06-24T00:10:40.330Z,71.20
2023-06-24T00:11:43.087Z,71.18
2023-06-24T00:12:46.102Z,71.35
2023-06-24T00:13:48.959Z,71.24
2023-06-24T00:14:51.449Z,71.29
2023-06-24T00:15:54.222Z,71.17
2023-06-24T00:16:57.302Z,71.13
2023-06-24T00:18:06.636Z,71.20
2023-06-24T00:19:09.252Z,71.35
2023-06-24T00:20:15.826Z,71.37
2023-06-24T00:21:18.153Z,71.32
2023-06-24T00:22:20.940Z,71.50
2023-06-24T00:23:25.631Z,71.43
2023-06-24T00:24:29.263Z,71.54
2023-06-24T00:25:31.484Z,71.74
2023-06-24T00:26:34.330Z,71.71
2023-06-24T00:27:36.123Z,71.65
2023-06-24T00:28:38.867Z,71.59
2023-06-24T00:29:40.753Z,71.81
2023-06-24T00:30:43.520Z,71.80
2023-06-24T00:31:45.349Z,71.78
2023-06-24T00:32:48.240Z,71.61
2023-06-24T00:33:53.171Z,71.67
2023-06-24T00:34:57.847Z,71.82
2023-06-24T00:36:02.641Z,71.79
2023-06-24T00:37:04.631Z,71.92
2023-06-24T00:38:07.465Z,71.86
2023-06-24T00:39:10.634Z,71.83
2023-06-24T00:40:16.247Z,72.06
2023-06-24T00:41:19.597Z,71.83
2023-06-24T00:42:22.423Z,71.75
2023-06-24T00:43:24.247Z,72.11
2023-06-24T00:44:27.030Z,71.77
2023-06-24T00:45:31.170Z,71.81
2023-06-24T00:46:34.325Z,71.87
2023-06-24T00:47:36.397Z,71.95
2023-06-24T00:48:39.289Z,72.05
2023-06-24T00:49:41.064Z,72.02
2023-06-24T00:50:46.754Z,72.00
2023-06-24T00:51:51.544Z,72.13
2023-06-24T00:52:54.574Z,72.01
2023-06-24T00:53:56.667Z,72.19
2023-06-24T00:54:59.524Z,72.13
2023-06-24T00:56:04.288Z,71.99
2023-06-24T00:57:07.918Z,72.13
2023-06-24T00:58:10.327Z,72.05
2023-06-24T00:59:15.476Z,72.02
2023-06-24T01:00:19.743Z,71.94
2023-06-24T01:01:22.732Z,71.92
2023-06-24T01:02:28.954Z,72.13
2023-06-24T01:03:32.880Z,72.29
2023-06-24T01:04:35.493Z,72.68
2023-06-24T01:05:38.297Z,72.84
2023-06-24T01:06:45.036Z,72.83
2023-06-24T01:07:57.277Z,73.01
2023-06-24T01:09:05.902Z,72.95
2023-06-24T01:10:09.746Z,72.93
2023-06-24T01:11:12.579Z,72.94
2023-06-24T01:12:14.975Z,73.05
2023-06-24T01:13:18.044Z,72.98
2023-06-24T01:14:21.477Z,72.87
2023-06-24T01:15:24.475Z,72.93
2023-06-24T01:16:31.978Z,72.98
2023-06-24T01:17:37.860Z,73.03
2023-06-24T01:18:41.661Z,73.01
2023-06-24T01:19:58.124Z,72.79
2023-06-24T01:21:04.661Z,72.89
2023-06-24T01:22:13.483Z,72.83
2023-06-24T01:24:00.896Z,72.92
2023-06-24T01:25:12.457Z,72.87
2023-06-24T01:26:45.134Z,72.90
2023-06-24T01:27:58.636Z,73.17
2023-06-24T01:29:31.737Z,73.27
2023-06-24T01:30:47.357Z,73.08
2023-06-24T01:31:54.952Z,73.00
2023-06-24T01:33:00.999Z,73.25
2023-06-24T01:34:10.045Z,73.07
2023-06-24T01:35:15.540Z,73.27
2023-06-24T01:36:20.052Z,73.21
2023-06-24T01:37:26.589Z,73.22
2023-06-24T01:38:38.247Z,73.12
2023-06-24T01:39:46.124Z,73.13
2023-06-24T01:40:49.798Z,73.13
2023-06-24T01:41:58.220Z,73.01
2023-06-24T01:43:02.369Z,73.10
2023-06-24T01:44:04.959Z,73.17
2023-06-24T01:45:08.966Z,73.16
2023-06-24T01:46:11.519Z,73.17
2023-06-24T01:47:16.914Z,73.14
2023-06-24T01:48:21.612Z,73.25
2023-06-24T01:49:24.870Z,73.19
2023-06-24T01:50:27.268Z,73.08
2023-06-24T01:51:31.124Z,72.88
2023-06-24T01:52:33.518Z,73.03
2023-06-24T01:53:39.925Z,72.86
2023-06-24T01:54:42.798Z,72.90
2023-06-24T01:55:46.198Z,73.06
2023-06-24T01:56:49.107Z,73.18
2023-06-24T01:57:52.754Z,73.11
2023-06-24T01:58:55.562Z,73.19
2023-06-24T02:00:01.197Z,73.11
2023-06-24T02:01:05.621Z,73.08
2023-06-24T02:02:09.295Z,73.07
2023-06-24T02:03:12.954Z,73.20
2023-06-24T02:04:16.949Z,73.35
2023-06-24T02:05:19.588Z,73.28
2023-06-24T02:08:02.337Z,73.38
2023-06-24T02:09:05.042Z,73.27
2023-06-24T02:10:09.572Z,73.32
2023-06-24T02:11:12.083Z,73.45
2023-06-24T02:12:15.977Z,73.49
2023-06-24T02:13:18.894Z,73.50
2023-06-24T02:14:22.322Z,73.66
2023-06-24T02:15:24.757Z,73.60
2023-06-24T02:16:28.794Z,73.71
2023-06-24T02:17:30.846Z,73.81
2023-06-24T02:18:35.415Z,73.74
2023-06-24T02:19:37.478Z,73.70
2023-06-24T02:20:42.172Z,73.74
2023-06-24T02:21:44.673Z,73.96
2023-06-24T02:22:47.660Z,74.09
2023-06-24T02:23:50.169Z,74.12
2023-06-24T02:24:53.450Z,74.02
2023-06-24T02:25:55.306Z,74.16
2023-06-24T02:26:59.044Z,73.96
2023-06-24T02:28:00.922Z,74.04
2023-06-24T02:29:03.723Z,74.15
2023-06-24T02:30:09.544Z,74.19
2023-06-24T02:31:13.096Z,74.09
2023-06-24T02:32:15.036Z,74.13
2023-06-24T02:33:17.907Z,74.19
2023-06-24T02:34:23.811Z,74.21
2023-06-24T02:35:26.607Z,74.13
2023-06-24T02:36:29.422Z,74.10
2023-06-24T02:37:32.325Z,74.22
2023-06-24T02:38:34.518Z,74.33
2023-06-24T02:39:39.055Z,74.33
2023-06-24T02:40:40.928Z,74.54
2023-06-24T02:41:45.473Z,74.46
2023-06-24T02:42:47.533Z,74.61
2023-06-24T02:43:50.690Z,74.61
2023-06-24T02:44:52.843Z,74.70
2023-06-24T02:45:55.732Z,74.83
2023-06-24T02:46:58.109Z,74.84
2023-06-24T02:48:01.613Z,74.69
2023-06-24T02:49:04.661Z,74.87
2023-06-24T02:50:10.707Z,74.64
2023-06-24T02:51:12.850Z,74.69
2023-06-24T02:52:17.635Z,74.90
2023-06-24T02:53:19.639Z,75.06
2023-06-24T02:54:24.231Z,75.23
2023-06-24T02:56:02.019Z,75.11
2023-06-24T02:57:07.714Z,75.34
2023-06-24T02:58:32.768Z,75.29
2023-06-24T02:59:41.083Z,75.42
2023-06-24T03:00:47.454Z,75.31
2023-06-24T03:02:18.058Z,75.21
2023-06-24T03:03:20.375Z,75.36
2023-06-24T03:04:31.949Z,75.24
2023-06-24T03:05:36.748Z,75.39
2023-06-24T03:06:40.858Z,75.30
2023-06-24T03:07:43.168Z,75.42
2023-06-24T03:08:46.379Z,75.66
2023-06-24T03:09:53.207Z,75.56
2023-06-24T03:10:57.952Z,75.59
2023-06-24T03:12:01.312Z,75.49
2023-06-24T03:13:14.548Z,75.48
2023-06-24T03:14:20.816Z,75.52
2023-06-24T03:15:25.292Z,75.60
2023-06-24T03:16:28.464Z,75.73
2023-06-24T03:17:47.516Z,75.98
2023-06-24T03:18:49.370Z,75.79
2023-06-24T03:19:52.999Z,75.91
2023-06-24T03:20:56.570Z,76.05
2023-06-24T03:22:03.614Z,76.00
2023-06-24T03:23:06.495Z,76.07
2023-06-24T03:24:09.800Z,76.00
2023-06-24T03:25:13.074Z,76.02
2023-06-24T03:26:16.037Z,75.96
2023-06-24T03:27:18.912Z,76.08
2023-06-24T03:28:22.228Z,76.28
2023-06-24T03:29:37.164Z,76.31
2023-06-24T03:30:46.949Z,76.39
2023-06-24T03:31:53.685Z,76.57
2023-06-24T03:32:59.380Z,76.46
2023-06-24T03:34:01.331Z,76.46
2023-06-24T03:35:05.811Z,76.54
2023-06-24T03:36:09.112Z,76.67
2023-06-24T03:37:12.121Z,76.80
2023-06-24T03:38:16.866Z,76.86
2023-06-24T03:39:20.267Z,76.96
2023-06-24T03:40:22.129Z,77.15
2023-06-24T03:41:27.283Z,77.03
2023-06-24T03:42:30.646Z,77.40
2023-06-24T03:43:33.477Z,77.31
2023-06-24T03:44:35.574Z,77.34
2023-06-24T03:45:39.271Z,77.31
2023-06-24T03:46:41.295Z,77.32
2023-06-24T03:47:46.632Z,77.39
2023-06-24T03:48:51.588Z,77.50
2023-06-24T03:49:54.834Z,77.59
2023-06-24T03:50:56.705Z,77.68
2023-06-24T03:52:00.942Z,78.00
2023-06-24T03:53:03.310Z,78.03
2023-06-24T03:54:06.551Z,78.03
2023-06-24T03:55:09.069Z,78.05
2023-06-24T03:56:11.949Z,78.21
2023-06-24T03:57:15.390Z,78.22
2023-06-24T03:58:17.812Z,78.31
2023-06-24T03:59:21.486Z,78.25
2023-06-24T04:00:24.297Z,78.28
2023-06-24T04:01:28.386Z,78.28
2023-06-24T04:02:30.540Z,78.30
2023-06-24T04:03:33.794Z,78.44
2023-06-24T04:04:36.382Z,78.50
2023-06-24T04:05:40.583Z,78.67
2023-06-24T04:06:42.491Z,78.68
2023-06-24T04:07:48.348Z,78.88
2023-06-24T04:08:53.082Z,78.94
2023-06-24T04:09:56.943Z,78.89
2023-06-24T04:11:01.045Z,78.95
2023-06-24T04:12:04.333Z,79.17
2023-06-24T04:13:09.907Z,79.39
2023-06-24T04:14:14.515Z,79.52
2023-06-24T04:15:16.365Z,79.82
2023-06-24T04:16:19.182Z,80.08
2023-06-24T04:17:21.032Z,80.14
2023-06-24T04:18:23.842Z,80.27
2023-06-24T04:19:25.692Z,80.34
2023-06-24T04:20:28.672Z,80.40
2023-06-24T04:21:30.449Z,80.51
2023-06-24T04:22:33.336Z,80.97
2023-06-24T04:23:36.784Z,81.23
2023-06-24T04:24:39.613Z,81.44
2023-06-24T04:25:41.538Z,81.57
2023-06-24T04:26:44.428Z,81.92
2023-06-24T04:27:46.242Z,82.13
2023-06-24T04:28:49.027Z,82.50
2023-06-24T04:29:50.850Z,82.48
2023-06-24T04:30:53.874Z,82.75
2023-06-24T04:31:56.299Z,82.71
2023-06-24T04:32:59.346Z,82.93
2023-06-24T04:34:01.617Z,83.07
2023-06-24T04:35:05.340Z,83.04
2023-06-24T04:36:07.950Z,83.12
2023-06-24T04:37:11.447Z,83.40
2023-06-24T04:38:19.088Z,83.36
2023-06-24T04:39:24.760Z,83.46
2023-06-24T04:40:26.629Z,83.28
2023-06-24T04:41:29.396Z,83.31
2023-06-24T04:42:31.237Z,83.36
2023-06-24T04:43:34.067Z,83.54
2023-06-24T04:44:35.875Z,83.60
2023-06-24T04:45:39.001Z,83.70
2023-06-24T04:46:41.425Z,83.81
2023-06-24T04:47:44.567Z,83.75
2023-06-24T04:48:46.472Z,83.91
2023-06-24T04:49:49.228Z,83.89
2023-06-24T04:50:51.162Z,84.06
2023-06-24T04:51:53.997Z,83.93
2023-06-24T04:52:57.613Z,83.86
2023-06-24T04:54:01.741Z,84.00
2023-06-24T04:55:06.907Z,83.98
2023-06-24T04:56:08.751Z,84.08
2023-06-24T04:57:16.689Z,84.03
2023-06-24T04:58:18.524Z,84.19
2023-06-24T04:59:21.245Z,84.19
2023-06-24T05:00:24.248Z,84.18
2023-06-24T05:01:27.142Z,84.35
2023-06-24T05:02:29.222Z,84.18
2023-06-24T05:03:32.036Z,84.23
2023-06-24T05:04:34.022Z,84.37
2023-06-24T05:05:36.935Z,84.35
2023-06-24T05:06:38.847Z,84.35
2023-06-24T05:07:41.720Z,84.41
2023-06-24T05:08:43.556Z,84.47
2023-06-24T05:09:48.143Z,84.56
2023-06-24T05:10:52.819Z,84.61
2023-06-24T05:11:55.662Z,84.65
2023-06-24T05:12:57.422Z,84.59
2023-06-24T05:14:00.215Z,84.54
2023-06-24T05:15:02.161Z,84.63
2023-06-24T05:16:05.342Z,85.01
2023-06-24T05:17:07.485Z,84.93
2023-06-24T05:18:10.284Z,84.96
2023-06-24T05:19:12.144Z,85.04
2023-06-24T05:20:15.077Z,85.22
2023-06-24T05:21:16.952Z,85.10
2023-06-24T05:22:19.786Z,85.11
2023-06-24T05:23:21.657Z,85.34
2023-06-24T05:24:24.500Z,85.45
2023-06-24T05:25:26.304Z,85.44
2023-06-24T05:26:30.582Z,85.44
2023-06-24T05:27:32.450Z,85.52
2023-06-24T05:28:35.271Z,85.59
2023-06-24T05:29:37.233Z,85.60
2023-06-24T05:30:40.208Z,85.76
2023-06-24T05:31:42.325Z,85.81
2023-06-24T05:32:45.278Z,85.81
2023-06-24T05:33:47.685Z,85.87
2023-06-24T05:34:50.467Z,85.84
2023-06-24T05:35:52.309Z,86.01
2023-06-24T05:36:55.275Z,85.92
2023-06-24T05:37:57.110Z,85.84
2023-06-24T05:38:59.895Z,85.82
2023-06-24T05:40:02.685Z,85.96
2023-06-24T05:41:05.486Z,85.99
2023-06-24T05:42:08.823Z,85.80
2023-06-24T05:43:12.599Z,85.82
2023-06-24T05:44:14.396Z,85.69
2023-06-24T05:45:17.207Z,85.81
2023-06-24T05:46:19.002Z,85.74
2023-06-24T05:47:21.801Z,85.74
2023-06-24T05:48:23.693Z,85.90
2023-06-24T05:49:26.480Z,85.68
2023-06-24T05:50:28.278Z,85.44
2023-06-24T05:51:31.147Z,85.45
2023-06-24T05:52:32.981Z,85.61
2023-06-24T05:53:35.760Z,85.52
2023-06-24T05:54:37.603Z,85.74
2023-06-24T05:55:40.385Z,85.79
2023-06-24T05:56:42.158Z,85.97
2023-06-24T05:57:46.310Z,86.08
2023-06-24T05:58:48.189Z,86.25
2023-06-24T05:59:50.928Z,86.40
2023-06-24T06:00:53.120Z,86.42
2023-06-24T06:01:55.972Z,86.64
2023-06-24T06:02:57.894Z,87.09
2023-06-24T06:04:00.828Z,86.88
2023-06-24T06:05:02.662Z,86.67
2023-06-24T06:06:05.804Z,86.77
2023-06-24T06:07:07.722Z,86.96
2023-06-24T06:08:10.518Z,86.83
2023-06-24T06:09:12.342Z,86.96
2023-06-24T06:10:18.303Z,86.84
2023-06-24T06:11:20.372Z,87.32
2023-06-24T06:12:23.157Z,87.26
2023-06-24T06:13:26.376Z,87.19
2023-06-24T06:14:29.187Z,87.40
2023-06-24T06:15:32.120Z,87.45
2023-06-24T06:16:34.093Z,87.63
2023-06-24T06:17:36.899Z,87.38
2023-06-24T06:18:38.721Z,87.42
2023-06-24T06:19:42.474Z,87.45
2023-06-24T06:20:44.331Z,87.87
2023-06-24T06:21:47.130Z,87.85
2023-06-24T06:22:49.208Z,87.96
2023-06-24T06:23:51.974Z,87.76
2023-06-24T06:24:53.848Z,87.72
2023-06-24T06:25:57.464Z,87.65
2023-06-24T06:26:59.593Z,87.61
2023-06-24T06:28:02.372Z,87.40
2023-06-24T06:29:05.567Z,86.99
2023-06-24T06:30:09.720Z,86.46
2023-06-24T06:31:11.614Z,86.56
2023-06-24T06:32:14.453Z,86.30
2023-06-24T06:33:16.350Z,86.38
2023-06-24T06:34:19.138Z,86.03
2023-06-24T06:35:21.236Z,85.60
2023-06-24T06:36:24.027Z,85.44
2023-06-24T06:37:25.863Z,85.01
2023-06-24T06:38:28.821Z,84.80
2023-06-24T06:39:30.614Z,84.66
2023-06-24T06:40:33.429Z,84.52
2023-06-24T06:41:35.477Z,84.52
2023-06-24T06:42:38.239Z,84.80
2023-06-24T06:43:40.077Z,84.83
2023-06-24T06:44:44.278Z,85.00
2023-06-24T06:45:47.127Z,84.78
2023-06-24T06:46:48.907Z,84.85
2023-06-24T06:47:52.020Z,84.90
2023-06-24T06:48:53.826Z,84.75
2023-06-24T06:49:56.583Z,84.85
2023-06-24T06:50:59.544Z,84.59
2023-06-24T06:52:02.319Z,84.57
2023-06-24T06:53:04.137Z,84.51
2023-06-24T06:54:07.005Z,84.23
2023-06-24T06:55:09.532Z,84.26
2023-06-24T06:56:19.024Z,84.20
2023-06-24T06:57:21.910Z,84.21
2023-06-24T06:58:23.738Z,83.96
2023-06-24T06:59:26.504Z,83.93
2023-06-24T07:00:29.687Z,83.60
2023-06-24T07:01:32.566Z,83.59
2023-06-24T07:02:34.407Z,83.43
2023-06-24T07:03:37.272Z,83.36
2023-06-24T07:04:39.111Z,83.20
2023-06-24T07:05:42.077Z,83.33
2023-06-24T07:06:44.237Z,82.77
2023-06-24T07:07:47.061Z,82.66
2023-06-24T07:08:49.088Z,82.55
2023-06-24T07:09:51.990Z,82.10
2023-06-24T07:10:54.046Z,82.18
2023-06-24T07:11:56.909Z,81.92
2023-06-24T07:12:59.329Z,81.81
2023-06-24T07:14:02.150Z,81.62
2023-06-24T07:15:04.577Z,81.31
2023-06-24T07:16:08.829Z,81.44
2023-06-24T07:17:10.699Z,81.51
2023-06-24T07:18:13.490Z,81.30
2023-06-24T07:19:15.335Z,81.48
2023-06-24T07:20:18.180Z,81.45
2023-06-24T07:21:20.023Z,81.23
2023-06-24T07:22:22.968Z,80.87
2023-06-24T07:23:25.106Z,80.42
2023-06-24T07:24:27.857Z,80.04
2023-06-24T07:25:29.706Z,79.57
2023-06-24T07:26:32.458Z,79.08
2023-06-24T07:27:34.332Z,78.92
2023-06-24T07:28:37.312Z,78.90
2023-06-24T07:29:39.140Z,78.60
2023-06-24T07:30:42.492Z,78.65
2023-06-24T07:31:45.872Z,78.13
2023-06-24T07:32:48.726Z,78.20
2023-06-24T07:33:50.566Z,77.98
2023-06-24T07:34:53.434Z,77.89
2023-06-24T07:35:55.235Z,77.72
2023-06-24T07:36:58.586Z,77.99
2023-06-24T07:38:02.162Z,77.57
2023-06-24T07:39:05.344Z,77.53
2023-06-24T07:40:09.093Z,76.97
2023-06-24T07:41:11.979Z,77.01
2023-06-24T07:42:19.658Z,77.02
2023-06-24T07:43:21.514Z,77.02
2023-06-24T07:44:24.325Z,77.14
2023-06-24T07:45:26.490Z,77.01
2023-06-24T07:46:29.533Z,77.23
2023-06-24T07:47:33.079Z,76.83
2023-06-24T07:48:36.019Z,76.78
2023-06-24T07:49:37.795Z,76.59
2023-06-24T07:50:40.681Z,76.37
2023-06-24T07:51:42.464Z,76.49
2023-06-24T07:52:45.194Z,76.25
2023-06-24T07:53:47.084Z,76.32
2023-06-24T07:54:49.855Z,76.33
2023-06-24T07:55:51.696Z,76.18
2023-06-24T07:56:54.490Z,75.94
2023-06-24T07:57:56.391Z,75.93
2023-06-24T07:58:59.213Z,75.39
2023-06-24T08:00:01.167Z,75.19
2023-06-24T08:01:04.108Z,75.36
2023-06-24T08:02:06.420Z,75.05
2023-06-24T08:03:11.135Z,75.09
2023-06-24T08:04:13.234Z,75.54
2023-06-24T08:05:16.047Z,75.00
2023-06-24T08:06:17.951Z,74.15
2023-06-24T08:07:20.806Z,74.00
2023-06-24T08:08:22.647Z,73.56
2023-06-24T08:09:25.454Z,73.31
2023-06-24T08:10:27.247Z,73.68
2023-06-24T08:11:30.040Z,73.60
2023-06-24T08:12:32.508Z,73.12
2023-06-24T08:13:35.271Z,72.75
2023-06-24T08:14:38.050Z,72.83
2023-06-24T08:15:42.456Z,73.04
2023-06-24T08:16:45.285Z,72.83
2023-06-24T08:17:53.149Z,72.87
2023-06-24T08:18:57.408Z,73.11
2023-06-24T08:19:59.276Z,72.74
2023-06-24T08:21:02.068Z,72.97
2023-06-24T08:22:06.006Z,72.97
2023-06-24T08:23:07.809Z,72.72
2023-06-24T08:24:10.568Z,72.63
2023-06-24T08:25:12.499Z,72.64
2023-06-24T08:26:17.595Z,72.21
2023-06-24T08:27:19.890Z,72.03
2023-06-24T08:28:22.695Z,72.12
2023-06-24T08:29:24.474Z,71.92
2023-06-24T08:30:27.315Z,72.10
2023-06-24T08:31:30.451Z,72.39
2023-06-24T08:32:33.319Z,72.61
2023-06-24T08:33:36.133Z,72.49
2023-06-24T08:34:39.382Z,72.33
2023-06-24T08:35:42.158Z,72.49
2023-06-24T08:36:43.966Z,72.72
2023-06-24T08:37:46.808Z,72.44
2023-06-24T08:38:48.623Z,71.99
2023-06-24T08:39:51.427Z,72.05
2023-06-24T08:40:54.472Z,71.81
2023-06-24T08:41:56.290Z,71.93
2023-06-24T08:42:59.467Z,72.03
2023-06-24T08:44:04.714Z,71.94
2023-06-24T08:45:07.561Z,71.83
2023-06-24T08:46:10.650Z,71.86
2023-06-24T08:47:15.292Z,71.51
2023-06-24T08:48:18.139Z,71.74
2023-06-24T08:49:29.775Z,71.39
2023-06-24T08:50:36.913Z,71.44
2023-06-24T08:51:43.109Z,71.43
2023-06-24T08:52:50.362Z,71.41
2023-06-24T08:53:53.368Z,71.74
2023-06-24T08:54:56.716Z,71.61
2023-06-24T08:55:59.914Z,71.65
2023-06-24T08:57:05.866Z,71.87
2023-06-24T08:58:09.294Z,72.16
2023-06-24T08:59:12.051Z,71.97
2023-06-24T09:00:15.053Z,71.51
2023-06-24T09:01:17.945Z,71.36
2023-06-24T09:02:19.961Z,71.59
2023-06-24T09:03:24.016Z,71.46
2023-06-24T09:04:25.847Z,71.62
2023-06-24T09:05:28.884Z,71.24
2023-06-24T09:06:32.255Z,70.91
2023-06-24T09:07:35.396Z,70.97
2023-06-24T09:08:40.516Z,70.92
2023-06-24T09:09:46.756Z,70.99
2023-06-24T09:10:54.211Z,70.96
2023-06-24T09:11:59.181Z,71.15
2023-06-24T09:13:01.670Z,70.91
2023-06-24T09:14:04.440Z,71.06
2023-06-24T09:15:07.117Z,71.16
2023-06-24T09:16:16.961Z,70.84
2023-06-24T09:17:19.293Z,70.92
2023-06-24T09:18:22.110Z,70.84
2023-06-24T09:19:24.754Z,71.06
2023-06-24T09:20:27.567Z,70.90
2023-06-24T09:21:31.680Z,70.76
2023-06-24T09:22:35.999Z,71.07
2023-06-24T09:23:38.385Z,70.96
2023-06-24T09:24:41.228Z,70.72
2023-06-24T09:25:43.059Z,70.66
2023-06-24T09:26:46.858Z,70.71
2023-06-24T09:27:49.509Z,70.78
2023-06-24T09:28:52.458Z,70.74
2023-06-24T09:29:55.228Z,70.63
2023-06-24T09:31:19.911Z,70.30
2023-06-24T09:32:23.256Z,70.55
2023-06-24T09:33:25.239Z,70.49
2023-06-24T09:34:28.623Z,70.53
2023-06-24T09:35:37.602Z,70.62
2023-06-24T09:36:43.266Z,70.87
2023-06-24T09:37:51.012Z,70.48
2023-06-24T09:38:52.899Z,70.52
2023-06-24T09:39:55.710Z,70.53
2023-06-24T09:41:12.841Z,70.37
2023-06-24T09:42:16.319Z,70.52
2023-06-24T09:43:21.537Z,70.39
2023-06-24T09:44:24.693Z,70.62
2023-06-24T09:45:27.852Z,70.16
2023-06-24T09:46:31.591Z,70.27
2023-06-24T09:47:34.439Z,70.11
2023-06-24T09:48:36.754Z,70.00
2023-06-24T09:49:39.557Z,70.12
2023-06-24T09:50:41.624Z,69.55
2023-06-24T09:51:46.326Z,69.33
2023-06-24T09:52:50.357Z,69.12
2023-06-24T09:53:54.649Z,69.07
2023-06-24T09:54:57.774Z,69.11
2023-06-24T09:56:02.107Z,69.00
2023-06-24T09:57:05.813Z,68.76
2023-06-24T09:58:07.703Z,68.92
2023-06-24T09:59:10.825Z,68.74
2023-06-24T10:00:16.223Z,68.72
2023-06-24T10:01:19.172Z,68.88
2023-06-24T10:02:22.514Z,68.94
2023-06-24T10:03:24.552Z,68.98
2023-06-24T10:04:29.850Z,68.59
2023-06-24T10:05:31.831Z,68.84
2023-06-24T10:06:34.965Z,68.51
2023-06-24T10:07:37.468Z,68.37
2023-06-24T10:08:41.676Z,68.64
2023-06-24T10:09:44.228Z,68.59
2023-06-24T10:10:47.052Z,68.43
2023-06-24T10:11:48.895Z,68.18
2023-06-24T10:12:51.664Z,68.17
2023-06-24T10:13:53.536Z,67.97
2023-06-24T10:14:56.396Z,68.34
2023-06-24T10:15:58.409Z,68.16
2023-06-24T10:17:05.237Z,67.80
2023-06-24T10:18:33.153Z,66.45
2023-06-24T10:19:40.135Z,67.43
2023-06-24T10:20:41.925Z,67.44
2023-06-24T10:21:49.390Z,67.21
2023-06-24T10:22:51.940Z,67.16
2023-06-24T10:23:56.162Z,67.02
2023-06-24T10:25:01.886Z,67.50
2023-06-24T10:26:09.024Z,67.31
2023-06-24T10:27:16.435Z,66.37
2023-06-24T10:28:18.314Z,66.87
2023-06-24T10:29:39.476Z,66.82
2023-06-24T10:30:55.997Z,66.99
2023-06-24T10:32:04.083Z,67.53
2023-06-24T10:33:14.134Z,67.32
2023-06-24T10:34:24.252Z,67.36
2023-06-24T10:35:31.279Z,67.29
2023-06-24T10:36:33.667Z,67.13
2023-06-24T10:37:36.444Z,67.44
2023-06-24T10:38:39.226Z,67.21
2023-06-24T10:39:51.972Z,67.26
2023-06-24T10:40:54.785Z,67.46
2023-06-24T10:41:56.690Z,67.51
2023-06-24T10:42:59.439Z,67.27
2023-06-24T10:44:15.993Z,67.11
2023-06-24T10:45:22.534Z,67.23
2023-06-24T10:46:27.786Z,67.35
2023-06-24T10:47:32.142Z,66.96
2023-06-24T10:48:35.003Z,67.30
2023-06-24T10:49:36.826Z,67.18
2023-06-24T10:50:39.612Z,67.05
2023-06-24T10:51:42.663Z,67.05
2023-06-24T10:52:46.793Z,66.76
2023-06-24T10:53:49.598Z,66.22
2023-06-24T10:54:53.917Z,66.01
2023-06-24T10:55:59.426Z,65.92
2023-06-24T10:57:01.769Z,66.16
2023-06-24T10:58:12.399Z,66.21
2023-06-24T10:59:14.757Z,66.56
2023-06-24T11:00:18.240Z,66.77
2023-06-24T11:01:21.101Z,66.89
2023-06-24T11:02:23.912Z,66.79
2023-06-24T11:03:26.747Z,66.73
2023-06-24T11:04:28.598Z,66.69
2023-06-24T11:05:33.224Z,66.84
2023-06-24T11:06:35.076Z,66.94
2023-06-24T11:07:40.124Z,67.14
2023-06-24T11:08:45.622Z,67.46
2023-06-24T11:09:51.144Z,67.54
2023-06-24T11:10:55.287Z,67.86
2023-06-24T11:11:57.093Z,67.77
2023-06-24T11:12:59.874Z,68.02
2023-06-24T11:14:01.792Z,68.11
2023-06-24T11:15:06.247Z,68.38
2023-06-24T11:16:08.185Z,68.68
2023-06-24T11:17:11.315Z,68.65
2023-06-24T11:18:14.054Z,68.72
2023-06-24T11:19:15.915Z,68.98
2023-06-24T11:20:18.926Z,68.77
2023-06-24T11:21:20.689Z,68.94
2023-06-24T11:22:24.273Z,68.88
2023-06-24T11:23:26.596Z,69.10
2023-06-24T11:24:29.694Z,69.28
2023-06-24T11:25:32.475Z,69.21
2023-06-24T11:26:36.214Z,69.22
2023-06-24T11:27:39.374Z,69.11
2023-06-24T11:28:41.574Z,69.24
2023-06-24T11:29:44.658Z,69.31
2023-06-24T11:30:47.434Z,69.57
2023-06-24T11:31:49.725Z,69.43
2023-06-24T11:32:52.623Z,69.36
2023-06-24T11:33:54.517Z,69.60
2023-06-24T11:34:57.348Z,69.76
2023-06-24T11:35:59.180Z,70.06
2023-06-24T11:37:11.596Z,69.95
2023-06-24T11:38:13.417Z,69.86
2023-06-24T11:39:24.107Z,70.11
2023-06-24T11:40:27.070Z,70.13
2023-06-24T11:41:28.985Z,69.98
2023-06-24T11:42:33.527Z,69.97
2023-06-24T11:43:35.450Z,70.02
2023-06-24T11:44:38.691Z,70.22
2023-06-24T11:45:40.704Z,70.52
2023-06-24T11:46:43.494Z,70.36
2023-06-24T11:47:45.572Z,70.37
2023-06-24T11:48:48.418Z,70.38
2023-06-24T11:49:51.973Z,70.20
2023-06-24T11:50:55.725Z,69.95
2023-06-24T11:51:57.632Z,69.92
2023-06-24T11:53:00.625Z,69.88
2023-06-24T11:54:03.934Z,69.98
2023-06-24T11:55:13.402Z,70.09
2023-06-24T11:56:16.308Z,70.36
2023-06-24T11:57:18.113Z,70.36
2023-06-24T11:58:22.455Z,70.66
2023-06-24T11:59:26.500Z,70.82
2023-06-24T12:00:30.535Z,71.04
2023-06-24T12:01:32.464Z,71.11
2023-06-24T12:02:35.272Z,71.36
2023-06-24T12:03:38.139Z,71.48
2023-06-24T12:04:44.825Z,71.33
2023-06-24T12:05:49.455Z,71.48
2023-06-24T12:06:51.288Z,71.57
2023-06-24T12:07:56.928Z,71.83
2023-06-24T12:08:59.690Z,72.31
2023-06-24T12:10:02.868Z,71.91
2023-06-24T12:11:04.946Z,71.92
2023-06-24T12:12:08.698Z,72.01
2023-06-24T12:13:11.539Z,72.13
2023-06-24T12:14:14.774Z,72.08
2023-06-24T12:15:17.644Z,72.36
2023-06-24T12:16:19.472Z,72.48
2023-06-24T12:17:22.334Z,72.59
2023-06-24T12:18:24.159Z,72.76
2023-06-24T12:19:27.140Z,72.87
2023-06-24T12:20:33.398Z,73.21
2023-06-24T12:21:37.992Z,72.81
2023-06-24T12:22:39.798Z,73.05
2023-06-24T12:23:42.666Z,73.14
2023-06-24T12:24:44.493Z,73.18
2023-06-24T12:25:47.327Z,73.32
2023-06-24T12:26:50.155Z,73.33
2023-06-24T12:27:53.324Z,73.46
2023-06-24T12:28:56.047Z,73.57
2023-06-24T12:30:00.184Z,73.30
2023-06-24T12:31:02.052Z,73.49
2023-06-24T12:32:05.255Z,73.87
2023-06-24T12:33:09.927Z,73.99
2023-06-24T12:34:11.890Z,74.14
2023-06-24T12:35:14.942Z,74.45
2023-06-24T12:36:16.807Z,74.59
2023-06-24T12:37:19.663Z,74.39
2023-06-24T12:38:21.604Z,74.43
2023-06-24T12:39:24.463Z,74.55
2023-06-24T12:40:27.267Z,74.65
2023-06-24T12:41:29.306Z,74.84
2023-06-24T12:42:32.334Z,74.82
2023-06-24T12:43:34.233Z,75.12
2023-06-24T12:44:37.007Z,75.49
2023-06-24T12:45:44.298Z,75.23
2023-06-24T12:46:46.141Z,75.27
2023-06-24T12:47:48.927Z,75.32
2023-06-24T12:48:50.815Z,75.13
2023-06-24T12:49:54.054Z,74.95
2023-06-24T12:50:55.867Z,74.47
2023-06-24T12:51:58.680Z,74.37
2023-06-24T12:53:01.473Z,74.17
2023-06-24T12:54:03.429Z,73.81
2023-06-24T12:55:07.661Z,73.23
2023-06-24T12:56:10.225Z,72.90
2023-06-24T12:57:14.514Z,73.03
2023-06-24T12:58:20.293Z,73.19
2023-06-24T12:59:23.039Z,72.92
2023-06-24T13:00:25.088Z,72.68
2023-06-24T13:01:29.334Z,72.41
2023-06-24T13:02:31.250Z,72.38
2023-06-24T13:03:34.045Z,72.31
2023-06-24T13:04:35.938Z,72.26
2023-06-24T13:05:38.698Z,72.41
2023-06-24T13:06:41.116Z,72.35
2023-06-24T13:07:44.228Z,71.84
2023-06-24T13:08:46.977Z,71.71
2023-06-24T13:09:48.774Z,71.50
2023-06-24T13:10:51.596Z,71.13
2023-06-24T13:11:53.663Z,71.23
2023-06-24T13:12:57.245Z,70.93
2023-06-24T13:13:59.500Z,70.65
2023-06-24T13:15:02.303Z,70.61
2023-06-24T13:16:04.134Z,69.89
2023-06-24T13:17:08.444Z,69.96
2023-06-24T13:18:10.270Z,70.06
2023-06-24T13:19:16.573Z,69.88
2023-06-24T13:20:18.774Z,69.77
2023-06-24T13:21:21.685Z,69.72
2023-06-24T13:22:23.526Z,69.81
2023-06-24T13:23:26.394Z,69.50
2023-06-24T13:24:29.233Z,70.12
2023-06-24T13:25:32.677Z,69.47
2023-06-24T13:26:34.506Z,69.15
2023-06-24T13:27:40.886Z,69.05
2023-06-24T13:28:43.339Z,69.36
2023-06-24T13:29:46.130Z,69.64
2023-06-24T13:30:47.992Z,69.85
2023-06-24T13:31:50.748Z,69.86
2023-06-24T13:32:54.967Z,70.07
2023-06-24T13:33:56.899Z,69.75
2023-06-24T13:34:59.663Z,69.57
2023-06-24T13:36:03.746Z,69.62
2023-06-24T13:37:06.062Z,69.63
2023-06-24T13:38:09.413Z,69.62
2023-06-24T13:39:13.544Z,69.96
2023-06-24T13:40:16.374Z,69.87
2023-06-24T13:41:18.214Z,69.86
2023-06-24T13:42:21.005Z,69.85
2023-06-24T13:43:22.817Z,69.90
2023-06-24T13:44:25.964Z,69.89